Arma, KS

11:21 PM CDT on May 19, 2019 (GMT -0500)
ArmaWest | | Change Station
Active Advisory: Flash Flood Watch Active Notice: Flash Flood Watch

Elev 1010 ft 37.55 °N, 94.71 °W | Updated 6 seconds ago

Clear
Clear
57 °F
Feels Like 57 °F
N
0
Wind Variable Wind from NE
Gusts 0.0 mph

Today
High -- | Low -- °F
--% Chance of Precip.
Yesterday
High -- | Low -- °F
Precip. -- in
Pressure 29.98 in
Visibility 10.0 miles
Clouds Clear
Dew Point 52 °F
Humidity 85%
Rainfall 0.03 in
Snow Depth Not available.
6:06 AM 8:24 PM
Full, 98% visible
METAR KPTS 200415Z AUTO 00000KT 10SM CLR 13/12 A2998 RMK AO2 T01310121
Pressure 29.98 in
Visibility 10.0 miles
Clouds Clear
Dew Point 52 °F
Humidity 85%
Rainfall 0.03 in
Snow Depth Not available.
6:06 AM 8:24 PM
Full, 98% visible
METAR KPTS 200415Z AUTO 00000KT 10SM CLR 13/12 A2998 RMK AO2 T01310121

Get Your Daily Forecast Email!

Thanks for signing up!

Be on the lookout for a verification email in your inbox.

You'll start receiving severe weather alerts in your inbox..

×

10-Day Weather Forecast

Almanac

Astronomy

May. 19, 2019 Rise Set
Actual Time
Civil Twilight
Nautical Twilight
Astronomical Twilight
Moon
Length of Visible Light
Length of Day
Tomorrow will be .
, % of the Moon is Illuminated

Today's Extremes

State Highs State Lows

Community

WunderPhotos

Category 6

Welcome to Category 6. This is the collective home for Weather Underground's featured writeups by Dr. Jeff Masters (right), Bob Henson (left), Chris Burt, and other regular contributors.

Nearby

Air Quality

  Air Quality AQ Index Pollutant
Not available.

Snow Depth

Station Depth Elevation

Earthquake Activity

City Distance Mag. Time & Date
Minimum magnitude displayed is 2.5.

Coastal Water Temperatures

Place Temperature

Stations

Nearby Weather Stations

Station Location Temp. Windchill Dew Point Humidity Wind Precip. Elev Updated Type
                   

Watches & Warnings

Flash Flood Watch
Issued: 7:12 PM CDT May. 19, 2019 – National Weather Service

... Flash Flood Watch remains in effect from Monday evening
through Tuesday evening...

The Flash Flood Watch continues for

* a portion of southeast Kansas, including the following areas,
Bourbon, Cherokee, and Crawford.

* From Monday evening through Tuesday evening

* heavy rainfall rates will be possible Monday night through
Tuesday night across southeast Kansas. Total rainfall amounts of
one to locally three inches will be possible during this
period. This rainfall will fall on already saturated soils,
increasing the potential for flash flooding.

* Low lying areas and areas near rivers, creeks and streams will
likely become flooded at times.

Precautionary/preparedness actions...

A Flash Flood Watch means that conditions may develop that lead
to flash flooding. Flash flooding is a very dangerous situation.

You should monitor later forecasts and be prepared to take action
should flash flood warnings be issued.



Dsa